sensor_id;sensor_type;location;lat;lon;timestamp;pressure;altitude;pressure_sealevel;temperature;humidity
65013;BME280;51715;39.432;-77.518;2023-06-22T00:02:04;100088.78;;;17.72;55.39
65013;BME280;51715;39.432;-77.518;2023-06-22T00:04:32;100081.18;;;18.06;54.84
65013;BME280;51715;39.432;-77.518;2023-06-22T00:07:00;100082.53;;;18.08;54.83
65013;BME280;51715;39.432;-77.518;2023-06-22T00:09:30;100089.21;;;17.56;55.77
65013;BME280;51715;39.432;-77.518;2023-06-22T00:11:59;100083.97;;;18.09;54.89
65013;BME280;51715;39.432;-77.518;2023-06-22T00:14:29;100078.07;;;17.35;55.60
65013;BME280;51715;39.432;-77.518;2023-06-22T00:16:58;100081.31;;;17.54;55.60
65013;BME280;51715;39.432;-77.518;2023-06-22T00:19:26;100066.04;;;18.02;54.75
65013;BME280;51715;39.432;-77.518;2023-06-22T00:21:55;100064.34;;;16.60;57.71
65013;BME280;51715;39.432;-77.518;2023-06-22T00:24:25;100073.91;;;17.33;56.24
65013;BME280;51715;39.432;-77.518;2023-06-22T00:26:54;100066.88;;;17.48;55.19
65013;BME280;51715;39.432;-77.518;2023-06-22T00:29:23;100066.20;;;16.44;57.47
65013;BME280;51715;39.432;-77.518;2023-06-22T00:31:52;100055.64;;;16.69;56.73
65013;BME280;51715;39.432;-77.518;2023-06-22T00:34:20;100065.37;;;16.10;58.37
65013;BME280;51715;39.432;-77.518;2023-06-22T00:36:54;100062.94;;;15.38;60.63
65013;BME280;51715;39.432;-77.518;2023-06-22T00:39:25;100063.70;;;15.67;60.58
65013;BME280;51715;39.432;-77.518;2023-06-22T00:41:53;100058.61;;;15.64;59.85
65013;BME280;51715;39.432;-77.518;2023-06-22T00:44:23;100062.32;;;15.86;59.77
65013;BME280;51715;39.432;-77.518;2023-06-22T00:46:52;100076.83;;;15.79;60.08
65013;BME280;51715;39.432;-77.518;2023-06-22T00:49:21;100072.92;;;15.47;59.17
65013;BME280;51715;39.432;-77.518;2023-06-22T00:51:50;100073.49;;;16.05;59.09
65013;BME280;51715;39.432;-77.518;2023-06-22T00:54:24;100065.84;;;16.63;57.54
65013;BME280;51715;39.432;-77.518;2023-06-22T00:56:53;100067.99;;;15.93;58.19
65013;BME280;51715;39.432;-77.518;2023-06-22T00:59:25;100068.57;;;16.16;58.72
65013;BME280;51715;39.432;-77.518;2023-06-22T01:01:55;100071.01;;;14.73;61.95
65013;BME280;51715;39.432;-77.518;2023-06-22T01:04:33;100067.93;;;15.38;60.70
65013;BME280;51715;39.432;-77.518;2023-06-22T01:07:06;100071.49;;;15.67;59.57
65013;BME280;51715;39.432;-77.518;2023-06-22T01:09:48;100067.85;;;15.66;59.80
65013;BME280;51715;39.432;-77.518;2023-06-22T01:12:17;100071.79;;;15.54;58.99
65013;BME280;51715;39.432;-77.518;2023-06-22T01:14:50;100064.90;;;15.71;59.28
65013;BME280;51715;39.432;-77.518;2023-06-22T01:17:23;100076.30;;;15.50;58.68
65013;BME280;51715;39.432;-77.518;2023-06-22T01:19:55;100072.79;;;14.73;60.20
65013;BME280;51715;39.432;-77.518;2023-06-22T01:22:27;100082.47;;;14.17;61.41
65013;BME280;51715;39.432;-77.518;2023-06-22T01:25:11;100073.75;;;14.46;61.26
65013;BME280;51715;39.432;-77.518;2023-06-22T01:27:50;100079.81;;;15.56;58.16
65013;BME280;51715;39.432;-77.518;2023-06-22T01:30:20;100080.33;;;15.54;58.02
65013;BME280;51715;39.432;-77.518;2023-06-22T01:32:50;100088.96;;;15.02;59.40
65013;BME280;51715;39.432;-77.518;2023-06-22T01:35:21;100084.97;;;14.83;59.10
65013;BME280;51715;39.432;-77.518;2023-06-22T01:37:51;100086.77;;;15.66;58.08
65013;BME280;51715;39.432;-77.518;2023-06-22T01:40:20;100088.11;;;15.48;58.75
65013;BME280;51715;39.432;-77.518;2023-06-22T01:42:51;100088.02;;;15.48;57.94
65013;BME280;51715;39.432;-77.518;2023-06-22T01:45:20;100093.98;;;15.03;59.17
65013;BME280;51715;39.432;-77.518;2023-06-22T01:47:49;100095.14;;;15.66;58.14
65013;BME280;51715;39.432;-77.518;2023-06-22T01:50:18;100093.49;;;15.90;57.09
65013;BME280;51715;39.432;-77.518;2023-06-22T01:52:47;100105.35;;;16.81;55.50
65013;BME280;51715;39.432;-77.518;2023-06-22T01:55:15;100092.42;;;16.86;54.17
65013;BME280;51715;39.432;-77.518;2023-06-22T01:57:44;100097.71;;;16.94;53.99
65013;BME280;51715;39.432;-77.518;2023-06-22T02:00:16;100102.04;;;16.32;55.03
65013;BME280;51715;39.432;-77.518;2023-06-22T02:02:50;100104.00;;;15.88;56.41
65013;BME280;51715;39.432;-77.518;2023-06-22T02:05:20;100107.41;;;16.56;55.65
65013;BME280;51715;39.432;-77.518;2023-06-22T02:07:55;100097.74;;;16.24;55.26
65013;BME280;51715;39.432;-77.518;2023-06-22T02:10:24;100097.93;;;16.32;54.47
65013;BME280;51715;39.432;-77.518;2023-06-22T02:12:55;100093.62;;;16.01;55.96
65013;BME280;51715;39.432;-77.518;2023-06-22T02:15:26;100087.23;;;16.31;55.70
65013;BME280;51715;39.432;-77.518;2023-06-22T02:17:55;100088.19;;;16.20;55.80
65013;BME280;51715;39.432;-77.518;2023-06-22T02:20:24;100079.49;;;15.46;57.02
65013;BME280;51715;39.432;-77.518;2023-06-22T02:22:53;100065.58;;;16.00;55.93
65013;BME280;51715;39.432;-77.518;2023-06-22T02:25:21;100061.10;;;16.22;55.16
65013;BME280;51715;39.432;-77.518;2023-06-22T02:27:49;100065.50;;;15.84;56.07
65013;BME280;51715;39.432;-77.518;2023-06-22T02:30:17;100058.14;;;15.63;55.87
65013;BME280;51715;39.432;-77.518;2023-06-22T02:32:45;100057.08;;;15.24;57.55
65013;BME280;51715;39.432;-77.518;2023-06-22T02:35:13;100038.32;;;14.66;59.11
65013;BME280;51715;39.432;-77.518;2023-06-22T02:37:41;100029.08;;;15.23;57.97
65013;BME280;51715;39.432;-77.518;2023-06-22T02:40:10;100026.44;;;15.61;57.07
65013;BME280;51715;39.432;-77.518;2023-06-22T02:42:40;100028.03;;;14.89;58.26
65013;BME280;51715;39.432;-77.518;2023-06-22T02:45:09;100026.67;;;14.93;58.36
65013;BME280;51715;39.432;-77.518;2023-06-22T02:47:38;100029.14;;;15.68;56.95
65013;BME280;51715;39.432;-77.518;2023-06-22T02:50:08;100030.13;;;16.57;54.88
65013;BME280;51715;39.432;-77.518;2023-06-22T02:52:36;100040.07;;;16.40;55.04
65013;BME280;51715;39.432;-77.518;2023-06-22T02:55:05;100036.72;;;16.09;55.26
65013;BME280;51715;39.432;-77.518;2023-06-22T02:57:33;100041.56;;;15.83;56.49
65013;BME280;51715;39.432;-77.518;2023-06-22T03:00:04;100038.48;;;16.03;56.28
65013;BME280;51715;39.432;-77.518;2023-06-22T03:02:33;100044.33;;;15.79;56.03
65013;BME280;51715;39.432;-77.518;2023-06-22T03:05:01;100035.26;;;15.80;55.84
65013;BME280;51715;39.432;-77.518;2023-06-22T03:07:29;100032.22;;;16.36;54.74
65013;BME280;51715;39.432;-77.518;2023-06-22T03:09:57;100025.73;;;14.93;58.68
65013;BME280;51715;39.432;-77.518;2023-06-22T03:12:24;100019.38;;;15.07;58.25
65013;BME280;51715;39.432;-77.518;2023-06-22T03:14:52;100022.05;;;15.65;57.34
65013;BME280;51715;39.432;-77.518;2023-06-22T03:17:21;100024.27;;;15.68;56.27
65013;BME280;51715;39.432;-77.518;2023-06-22T03:19:48;100025.41;;;15.77;56.75
65013;BME280;51715;39.432;-77.518;2023-06-22T03:22:17;100016.73;;;16.02;55.99
65013;BME280;51715;39.432;-77.518;2023-06-22T03:24:45;100017.08;;;16.10;56.41
65013;BME280;51715;39.432;-77.518;2023-06-22T03:27:13;100016.92;;;16.08;55.70
65013;BME280;51715;39.432;-77.518;2023-06-22T03:29:41;100019.68;;;15.98;56.67
65013;BME280;51715;39.432;-77.518;2023-06-22T03:32:09;100022.48;;;15.72;57.21
65013;BME280;51715;39.432;-77.518;2023-06-22T03:34:38;100018.07;;;15.49;57.55
65013;BME280;51715;39.432;-77.518;2023-06-22T03:37:07;100014.86;;;15.82;56.25
65013;BME280;51715;39.432;-77.518;2023-06-22T03:39:35;100021.44;;;15.25;57.89
65013;BME280;51715;39.432;-77.518;2023-06-22T03:42:05;100026.08;;;14.79;59.23
65013;BME280;51715;39.432;-77.518;2023-06-22T03:44:33;100022.54;;;15.36;58.21
65013;BME280;51715;39.432;-77.518;2023-06-22T03:47:01;100011.86;;;15.60;57.15
65013;BME280;51715;39.432;-77.518;2023-06-22T03:49:30;100004.77;;;15.53;57.61
65013;BME280;51715;39.432;-77.518;2023-06-22T03:51:59;100001.64;;;14.83;59.21
65013;BME280;51715;39.432;-77.518;2023-06-22T03:54:27;99989.43;;;15.72;57.75
65013;BME280;51715;39.432;-77.518;2023-06-22T03:56:56;99995.81;;;15.45;58.17
65013;BME280;51715;39.432;-77.518;2023-06-22T03:59:25;99998.67;;;15.31;57.76
65013;BME280;51715;39.432;-77.518;2023-06-22T04:04:11;99990.71;;;15.30;57.16
65013;BME280;51715;39.432;-77.518;2023-06-22T04:06:39;99976.95;;;14.63;58.08
65013;BME280;51715;39.432;-77.518;2023-06-22T04:09:08;99978.22;;;14.24;59.72
65013;BME280;51715;39.432;-77.518;2023-06-22T04:11:36;99968.85;;;14.66;59.60
65013;BME280;51715;39.432;-77.518;2023-06-22T04:14:03;99963.54;;;14.76;59.61
65013;BME280;51715;39.432;-77.518;2023-06-22T04:16:31;99956.10;;;14.69;59.82
65013;BME280;51715;39.432;-77.518;2023-06-22T04:18:59;99952.67;;;14.83;59.78
65013;BME280;51715;39.432;-77.518;2023-06-22T04:21:27;99952.72;;;14.96;59.31
65013;BME280;51715;39.432;-77.518;2023-06-22T04:23:55;99945.16;;;14.83;59.61
65013;BME280;51715;39.432;-77.518;2023-06-22T04:26:23;99932.89;;;15.29;58.15
65013;BME280;51715;39.432;-77.518;2023-06-22T04:28:51;99940.09;;;14.95;59.22
65013;BME280;51715;39.432;-77.518;2023-06-22T04:31:19;99938.31;;;15.07;57.86
65013;BME280;51715;39.432;-77.518;2023-06-22T04:33:47;99930.14;;;15.21;58.70
65013;BME280;51715;39.432;-77.518;2023-06-22T04:36:15;99927.53;;;15.21;58.42
65013;BME280;51715;39.432;-77.518;2023-06-22T04:38:43;99930.81;;;14.96;59.36
65013;BME280;51715;39.432;-77.518;2023-06-22T04:41:11;99933.53;;;13.89;61.80
65013;BME280;51715;39.432;-77.518;2023-06-22T04:43:39;99921.38;;;14.02;60.93
65013;BME280;51715;39.432;-77.518;2023-06-22T04:46:07;99920.99;;;14.26;60.64
65013;BME280;51715;39.432;-77.518;2023-06-22T04:48:35;99919.25;;;14.06;61.54
65013;BME280;51715;39.432;-77.518;2023-06-22T04:51:04;99917.96;;;14.06;61.76
65013;BME280;51715;39.432;-77.518;2023-06-22T04:53:32;99913.24;;;14.24;61.03
65013;BME280;51715;39.432;-77.518;2023-06-22T04:56:00;99908.18;;;14.99;59.77
65013;BME280;51715;39.432;-77.518;2023-06-22T04:58:29;99917.45;;;14.60;60.56
65013;BME280;51715;39.432;-77.518;2023-06-22T05:00:57;99917.20;;;13.93;61.13
65013;BME280;51715;39.432;-77.518;2023-06-22T05:03:25;99916.99;;;14.25;61.06
65013;BME280;51715;39.432;-77.518;2023-06-22T05:05:54;99915.28;;;14.05;62.01
65013;BME280;51715;39.432;-77.518;2023-06-22T05:08:23;99911.63;;;14.26;60.36
65013;BME280;51715;39.432;-77.518;2023-06-22T05:10:51;99921.74;;;14.15;60.97
65013;BME280;51715;39.432;-77.518;2023-06-22T05:13:19;99915.33;;;14.18;60.49
65013;BME280;51715;39.432;-77.518;2023-06-22T05:15:47;99921.34;;;14.55;60.40
65013;BME280;51715;39.432;-77.518;2023-06-22T05:18:15;99910.61;;;14.64;59.53
65013;BME280;51715;39.432;-77.518;2023-06-22T05:20:44;99923.43;;;15.27;58.11
65013;BME280;51715;39.432;-77.518;2023-06-22T05:23:12;99916.91;;;15.03;58.33
65013;BME280;51715;39.432;-77.518;2023-06-22T05:25:39;99911.51;;;15.10;58.19
65013;BME280;51715;39.432;-77.518;2023-06-22T05:28:07;99904.10;;;14.99;58.91
65013;BME280;51715;39.432;-77.518;2023-06-22T05:30:35;99905.80;;;14.80;59.34
65013;BME280;51715;39.432;-77.518;2023-06-22T05:33:02;99905.79;;;14.62;60.44
65013;BME280;51715;39.432;-77.518;2023-06-22T05:35:30;99889.51;;;14.22;60.67
65013;BME280;51715;39.432;-77.518;2023-06-22T05:37:58;99904.40;;;15.44;58.91
65013;BME280;51715;39.432;-77.518;2023-06-22T05:40:25;99891.86;;;15.27;58.69
65013;BME280;51715;39.432;-77.518;2023-06-22T05:42:53;99893.69;;;15.17;58.50
65013;BME280;51715;39.432;-77.518;2023-06-22T05:45:22;99892.67;;;15.36;58.31
65013;BME280;51715;39.432;-77.518;2023-06-22T05:47:50;99896.33;;;14.99;58.19
65013;BME280;51715;39.432;-77.518;2023-06-22T05:50:18;99893.22;;;15.41;58.10
65013;BME280;51715;39.432;-77.518;2023-06-22T05:52:46;99890.84;;;14.97;59.18
65013;BME280;51715;39.432;-77.518;2023-06-22T05:55:14;99885.74;;;14.66;59.64
65013;BME280;51715;39.432;-77.518;2023-06-22T05:57:43;99883.46;;;14.64;60.84
65013;BME280;51715;39.432;-77.518;2023-06-22T06:00:12;99886.81;;;14.87;59.32
65013;BME280;51715;39.432;-77.518;2023-06-22T06:02:41;99886.47;;;14.66;60.07
65013;BME280;51715;39.432;-77.518;2023-06-22T06:05:10;99889.95;;;14.94;59.72
65013;BME280;51715;39.432;-77.518;2023-06-22T06:07:38;99879.68;;;15.28;59.06
65013;BME280;51715;39.432;-77.518;2023-06-22T06:10:07;99874.82;;;14.76;59.66
65013;BME280;51715;39.432;-77.518;2023-06-22T06:12:35;99875.78;;;15.54;58.04
65013;BME280;51715;39.432;-77.518;2023-06-22T06:15:04;99872.56;;;15.36;58.16
65013;BME280;51715;39.432;-77.518;2023-06-22T06:17:32;99882.70;;;15.55;57.21
65013;BME280;51715;39.432;-77.518;2023-06-22T06:19:59;99877.87;;;16.21;56.43
65013;BME280;51715;39.432;-77.518;2023-06-22T06:22:28;99871.58;;;14.84;58.28
65013;BME280;51715;39.432;-77.518;2023-06-22T06:24:57;99876.01;;;15.48;57.25
65013;BME280;51715;39.432;-77.518;2023-06-22T06:27:25;99880.97;;;15.69;56.42
65013;BME280;51715;39.432;-77.518;2023-06-22T06:29:52;99872.66;;;15.75;56.24
65013;BME280;51715;39.432;-77.518;2023-06-22T06:32:20;99873.88;;;16.45;55.09
65013;BME280;51715;39.432;-77.518;2023-06-22T06:34:48;99879.64;;;15.89;55.85
65013;BME280;51715;39.432;-77.518;2023-06-22T06:37:17;99878.63;;;16.69;54.44
65013;BME280;51715;39.432;-77.518;2023-06-22T06:39:45;99886.61;;;16.86;54.13
65013;BME280;51715;39.432;-77.518;2023-06-22T06:42:13;99881.67;;;16.28;55.30
65013;BME280;51715;39.432;-77.518;2023-06-22T06:44:40;99880.16;;;16.25;55.16
65013;BME280;51715;39.432;-77.518;2023-06-22T06:47:09;99873.07;;;15.96;56.12
65013;BME280;51715;39.432;-77.518;2023-06-22T06:49:36;99867.49;;;15.88;55.61
65013;BME280;51715;39.432;-77.518;2023-06-22T06:52:05;99870.83;;;15.99;55.99
65013;BME280;51715;39.432;-77.518;2023-06-22T06:54:33;99874.54;;;16.36;55.04
65013;BME280;51715;39.432;-77.518;2023-06-22T06:57:01;99870.24;;;16.13;55.19
65013;BME280;51715;39.432;-77.518;2023-06-22T06:59:30;99865.30;;;16.88;53.92
65013;BME280;51715;39.432;-77.518;2023-06-22T07:01:58;99861.13;;;16.30;54.35
65013;BME280;51715;39.432;-77.518;2023-06-22T07:04:26;99866.97;;;16.39;54.57
65013;BME280;51715;39.432;-77.518;2023-06-22T07:06:54;99872.75;;;16.53;53.92
65013;BME280;51715;39.432;-77.518;2023-06-22T07:09:22;99875.86;;;16.69;53.72
65013;BME280;51715;39.432;-77.518;2023-06-22T07:11:50;99873.95;;;16.97;52.70
65013;BME280;51715;39.432;-77.518;2023-06-22T07:14:18;99867.79;;;15.63;55.61
65013;BME280;51715;39.432;-77.518;2023-06-22T07:16:46;99871.04;;;16.05;54.89
65013;BME280;51715;39.432;-77.518;2023-06-22T07:19:14;99867.37;;;16.35;54.32
65013;BME280;51715;39.432;-77.518;2023-06-22T07:21:42;99868.02;;;16.33;54.45
65013;BME280;51715;39.432;-77.518;2023-06-22T07:24:10;99860.72;;;16.81;53.50
65013;BME280;51715;39.432;-77.518;2023-06-22T07:26:38;99862.04;;;17.08;52.57
65013;BME280;51715;39.432;-77.518;2023-06-22T07:29:06;99856.69;;;17.24;52.50
65013;BME280;51715;39.432;-77.518;2023-06-22T07:31:33;99858.93;;;16.99;52.53
65013;BME280;51715;39.432;-77.518;2023-06-22T07:34:01;99855.68;;;16.41;53.82
65013;BME280;51715;39.432;-77.518;2023-06-22T07:36:29;99862.07;;;16.75;53.07
65013;BME280;51715;39.432;-77.518;2023-06-22T07:38:57;99851.07;;;17.25;51.98
65013;BME280;51715;39.432;-77.518;2023-06-22T07:41:26;99851.55;;;17.03;52.87
65013;BME280;51715;39.432;-77.518;2023-06-22T07:43:55;99852.85;;;17.14;52.57
65013;BME280;51715;39.432;-77.518;2023-06-22T07:46:23;99852.86;;;17.45;52.12
65013;BME280;51715;39.432;-77.518;2023-06-22T07:48:50;99854.44;;;16.82;52.71
65013;BME280;51715;39.432;-77.518;2023-06-22T07:51:18;99860.66;;;16.94;52.17
65013;BME280;51715;39.432;-77.518;2023-06-22T07:53:46;99860.66;;;16.53;53.46
65013;BME280;51715;39.432;-77.518;2023-06-22T07:56:13;99856.51;;;17.15;52.64
65013;BME280;51715;39.432;-77.518;2023-06-22T07:58:42;99863.98;;;17.30;52.12
65013;BME280;51715;39.432;-77.518;2023-06-22T08:01:09;99862.40;;;17.21;51.99
65013;BME280;51715;39.432;-77.518;2023-06-22T08:03:37;99862.95;;;16.82;52.71
65013;BME280;51715;39.432;-77.518;2023-06-22T08:06:06;99865.80;;;17.01;52.27
65013;BME280;51715;39.432;-77.518;2023-06-22T08:08:35;99864.57;;;16.23;54.99
65013;BME280;51715;39.432;-77.518;2023-06-22T08:11:04;99869.46;;;16.57;53.35
65013;BME280;51715;39.432;-77.518;2023-06-22T08:13:32;99868.67;;;16.44;54.02
65013;BME280;51715;39.432;-77.518;2023-06-22T08:16:01;99868.06;;;16.85;53.08
65013;BME280;51715;39.432;-77.518;2023-06-22T08:18:29;99878.33;;;16.85;53.04
65013;BME280;51715;39.432;-77.518;2023-06-22T08:20:57;99871.80;;;16.46;53.89
65013;BME280;51715;39.432;-77.518;2023-06-22T08:23:24;99870.44;;;16.84;52.89
65013;BME280;51715;39.432;-77.518;2023-06-22T08:25:52;99867.81;;;16.17;54.21
65013;BME280;51715;39.432;-77.518;2023-06-22T08:28:20;99872.63;;;15.93;54.79
65013;BME280;51715;39.432;-77.518;2023-06-22T08:30:48;99877.26;;;16.55;53.58
65013;BME280;51715;39.432;-77.518;2023-06-22T08:33:16;99879.53;;;16.72;52.88
65013;BME280;51715;39.432;-77.518;2023-06-22T08:35:44;99882.44;;;16.66;53.43
65013;BME280;51715;39.432;-77.518;2023-06-22T08:38:13;99884.14;;;17.26;52.01
65013;BME280;51715;39.432;-77.518;2023-06-22T08:40:40;99883.11;;;17.11;51.87
65013;BME280;51715;39.432;-77.518;2023-06-22T08:43:09;99882.04;;;17.26;51.00
65013;BME280;51715;39.432;-77.518;2023-06-22T08:45:37;99881.18;;;16.83;52.67
65013;BME280;51715;39.432;-77.518;2023-06-22T08:48:06;99883.76;;;16.74;52.99
65013;BME280;51715;39.432;-77.518;2023-06-22T08:50:34;99889.33;;;16.70;52.90
65013;BME280;51715;39.432;-77.518;2023-06-22T08:53:01;99890.58;;;16.56;52.49
65013;BME280;51715;39.432;-77.518;2023-06-22T08:55:30;99895.57;;;17.10;52.11
65013;BME280;51715;39.432;-77.518;2023-06-22T08:57:57;99902.19;;;17.36;51.49
65013;BME280;51715;39.432;-77.518;2023-06-22T09:00:26;99906.86;;;16.81;52.48
65013;BME280;51715;39.432;-77.518;2023-06-22T09:02:54;99903.26;;;17.21;51.73
65013;BME280;51715;39.432;-77.518;2023-06-22T09:05:22;99899.08;;;17.72;51.09
65013;BME280;51715;39.432;-77.518;2023-06-22T09:07:51;99896.38;;;17.41;50.97
65013;BME280;51715;39.432;-77.518;2023-06-22T09:10:19;99902.58;;;17.36;51.36
65013;BME280;51715;39.432;-77.518;2023-06-22T09:12:47;99901.96;;;17.50;50.91
65013;BME280;51715;39.432;-77.518;2023-06-22T09:15:15;99899.21;;;17.71;51.13
65013;BME280;51715;39.432;-77.518;2023-06-22T09:17:44;99903.15;;;17.63;50.79
65013;BME280;51715;39.432;-77.518;2023-06-22T09:20:12;99898.94;;;17.73;51.25
65013;BME280;51715;39.432;-77.518;2023-06-22T09:22:40;99898.54;;;17.10;51.39
65013;BME280;51715;39.432;-77.518;2023-06-22T09:25:10;99905.54;;;17.41;51.28
65013;BME280;51715;39.432;-77.518;2023-06-22T09:27:38;99908.11;;;17.67;50.93
65013;BME280;51715;39.432;-77.518;2023-06-22T09:30:07;99903.87;;;17.16;51.49
65013;BME280;51715;39.432;-77.518;2023-06-22T09:32:37;99904.05;;;16.65;52.65
65013;BME280;51715;39.432;-77.518;2023-06-22T09:35:06;99904.67;;;16.34;54.03
65013;BME280;51715;39.432;-77.518;2023-06-22T09:37:34;99919.51;;;16.96;52.63
65013;BME280;51715;39.432;-77.518;2023-06-22T09:40:03;99914.95;;;16.17;54.36
65013;BME280;51715;39.432;-77.518;2023-06-22T09:42:31;99926.63;;;16.87;52.75
65013;BME280;51715;39.432;-77.518;2023-06-22T09:44:59;99925.97;;;17.05;52.16
65013;BME280;51715;39.432;-77.518;2023-06-22T09:47:27;99926.64;;;17.74;51.54
65013;BME280;51715;39.432;-77.518;2023-06-22T09:49:55;99926.10;;;17.96;51.01
65013;BME280;51715;39.432;-77.518;2023-06-22T09:52:23;99924.73;;;17.90;50.71
65013;BME280;51715;39.432;-77.518;2023-06-22T09:54:51;99923.76;;;17.57;51.23
65013;BME280;51715;39.432;-77.518;2023-06-22T09:57:20;99924.49;;;17.93;50.73
65013;BME280;51715;39.432;-77.518;2023-06-22T09:59:48;99926.14;;;17.88;50.70
65013;BME280;51715;39.432;-77.518;2023-06-22T10:02:16;99926.87;;;18.05;50.57
65013;BME280;51715;39.432;-77.518;2023-06-22T10:04:44;99927.36;;;17.96;50.22
65013;BME280;51715;39.432;-77.518;2023-06-22T10:07:12;99930.44;;;18.23;50.22
65013;BME280;51715;39.432;-77.518;2023-06-22T10:09:40;99931.59;;;17.99;50.23
65013;BME280;51715;39.432;-77.518;2023-06-22T10:12:10;99928.79;;;18.09;50.01
65013;BME280;51715;39.432;-77.518;2023-06-22T10:14:39;99929.74;;;18.46;49.73
65013;BME280;51715;39.432;-77.518;2023-06-22T10:17:08;99932.46;;;18.40;49.91
65013;BME280;51715;39.432;-77.518;2023-06-22T10:19:36;99935.09;;;18.41;49.90
65013;BME280;51715;39.432;-77.518;2023-06-22T10:22:05;99938.01;;;18.50;49.87
65013;BME280;51715;39.432;-77.518;2023-06-22T10:24:33;99937.91;;;18.37;50.02
65013;BME280;51715;39.432;-77.518;2023-06-22T10:27:01;99939.54;;;18.29;50.10
65013;BME280;51715;39.432;-77.518;2023-06-22T10:29:29;99944.94;;;18.07;50.54
65013;BME280;51715;39.432;-77.518;2023-06-22T10:31:57;99947.32;;;18.25;50.57
65013;BME280;51715;39.432;-77.518;2023-06-22T10:34:25;99952.39;;;17.20;52.56
65013;BME280;51715;39.432;-77.518;2023-06-22T10:36:53;99956.40;;;17.81;51.63
65013;BME280;51715;39.432;-77.518;2023-06-22T10:39:21;99959.75;;;18.21;51.10
65013;BME280;51715;39.432;-77.518;2023-06-22T10:41:49;99960.75;;;18.00;51.23
65013;BME280;51715;39.432;-77.518;2023-06-22T10:44:17;99961.87;;;18.24;50.92
65013;BME280;51715;39.432;-77.518;2023-06-22T10:46:45;99963.14;;;18.34;50.73
65013;BME280;51715;39.432;-77.518;2023-06-22T10:49:13;99967.07;;;18.04;50.85
65013;BME280;51715;39.432;-77.518;2023-06-22T10:51:42;99966.94;;;18.53;50.62
65013;BME280;51715;39.432;-77.518;2023-06-22T10:54:17;99970.15;;;17.94;51.35
65013;BME280;51715;39.432;-77.518;2023-06-22T10:56:46;99971.26;;;18.16;50.68
65013;BME280;51715;39.432;-77.518;2023-06-22T10:59:14;99973.85;;;18.19;50.71
65013;BME280;51715;39.432;-77.518;2023-06-22T11:01:43;99969.73;;;18.43;50.48
65013;BME280;51715;39.432;-77.518;2023-06-22T11:04:11;99972.66;;;18.41;50.14
65013;BME280;51715;39.432;-77.518;2023-06-22T11:06:39;99974.26;;;18.48;50.16
65013;BME280;51715;39.432;-77.518;2023-06-22T11:09:07;99975.48;;;18.81;49.90
65013;BME280;51715;39.432;-77.518;2023-06-22T11:11:36;99977.46;;;19.06;50.14
65013;BME280;51715;39.432;-77.518;2023-06-22T11:14:05;99975.04;;;18.15;50.66
65013;BME280;51715;39.432;-77.518;2023-06-22T11:16:33;99971.08;;;18.64;50.30
65013;BME280;51715;39.432;-77.518;2023-06-22T11:19:01;99972.50;;;18.82;50.26
65013;BME280;51715;39.432;-77.518;2023-06-22T11:21:29;99971.97;;;18.87;49.97
65013;BME280;51715;39.432;-77.518;2023-06-22T11:23:58;99976.35;;;19.05;49.79
65013;BME280;51715;39.432;-77.518;2023-06-22T11:26:26;99974.64;;;19.04;49.64
65013;BME280;51715;39.432;-77.518;2023-06-22T11:28:55;99980.10;;;19.10;49.64
65013;BME280;51715;39.432;-77.518;2023-06-22T11:31:23;99976.76;;;19.00;49.74
65013;BME280;51715;39.432;-77.518;2023-06-22T11:33:51;99976.00;;;18.29;50.63
65013;BME280;51715;39.432;-77.518;2023-06-22T11:36:20;99978.16;;;18.74;50.34
65013;BME280;51715;39.432;-77.518;2023-06-22T11:38:48;99976.51;;;18.64;50.28
65013;BME280;51715;39.432;-77.518;2023-06-22T11:41:17;99974.21;;;18.81;50.28
65013;BME280;51715;39.432;-77.518;2023-06-22T11:43:45;99976.03;;;18.86;50.06
65013;BME280;51715;39.432;-77.518;2023-06-22T11:46:14;99981.40;;;18.93;49.99
65013;BME280;51715;39.432;-77.518;2023-06-22T11:48:42;99975.67;;;19.06;49.99
65013;BME280;51715;39.432;-77.518;2023-06-22T11:51:11;99980.08;;;19.11;49.57
65013;BME280;51715;39.432;-77.518;2023-06-22T11:53:39;99986.89;;;19.08;49.91
65013;BME280;51715;39.432;-77.518;2023-06-22T11:56:07;99990.88;;;19.06;50.14
65013;BME280;51715;39.432;-77.518;2023-06-22T11:58:36;99990.13;;;18.76;50.46
65013;BME280;51715;39.432;-77.518;2023-06-22T12:01:05;99988.87;;;19.11;50.16
65013;BME280;51715;39.432;-77.518;2023-06-22T12:03:33;99988.59;;;19.00;50.04
65013;BME280;51715;39.432;-77.518;2023-06-22T12:06:02;99989.88;;;19.27;49.80
65013;BME280;51715;39.432;-77.518;2023-06-22T12:08:31;99989.77;;;18.82;50.26
65013;BME280;51715;39.432;-77.518;2023-06-22T12:10:59;99994.44;;;18.70;50.42
65013;BME280;51715;39.432;-77.518;2023-06-22T12:13:28;99996.12;;;18.89;50.23
65013;BME280;51715;39.432;-77.518;2023-06-22T12:15:56;99997.91;;;18.91;50.31
65013;BME280;51715;39.432;-77.518;2023-06-22T12:18:25;99997.79;;;19.20;50.12
65013;BME280;51715;39.432;-77.518;2023-06-22T12:20:53;99998.11;;;19.26;49.90
65013;BME280;51715;39.432;-77.518;2023-06-22T12:23:21;99999.29;;;19.36;49.99
65013;BME280;51715;39.432;-77.518;2023-06-22T12:25:49;99997.79;;;19.41;50.01
65013;BME280;51715;39.432;-77.518;2023-06-22T12:28:17;99990.93;;;19.63;49.96
65013;BME280;51715;39.432;-77.518;2023-06-22T12:30:46;99995.88;;;19.08;50.12
65013;BME280;51715;39.432;-77.518;2023-06-22T12:33:14;99996.37;;;19.40;49.93
65013;BME280;51715;39.432;-77.518;2023-06-22T12:35:43;100002.30;;;19.32;50.07
65013;BME280;51715;39.432;-77.518;2023-06-22T12:38:11;100006.96;;;19.58;49.88
65013;BME280;51715;39.432;-77.518;2023-06-22T12:40:39;100008.31;;;19.09;50.29
65013;BME280;51715;39.432;-77.518;2023-06-22T12:43:08;100007.83;;;19.18;49.97
65013;BME280;51715;39.432;-77.518;2023-06-22T12:45:36;100007.08;;;19.22;50.17
65013;BME280;51715;39.432;-77.518;2023-06-22T12:48:06;100003.15;;;19.31;50.64